In Rescue
 
Open Full Screen Window  High Contrast Mode
Wind Gusting 00 knots
13
May 25, 2022 6:13 PM PDT
Weather Information
Wind Direction
  260 °
Wind Speed
  13 kt (15 mph)
Wind Gust
  00 kt (0 mph)
Altimeter
29.83 in
Visibility
10 SM
Temperature
29° C
84° F
Dewpoint
11° C
52° F
Humidity
33%
1hr Rain Fall
00.00 in.
24hr Rain Fall
00.00 in.
Sky Condition
Clear
VFR

METAR KSBD 260113Z AUTO 26013KT 10SM CLR 29/11 A2983 RMK AO2 T02920105

FAA Disclaimer: The data displayed is for advisory purposes only and is not to be used for flight planning or operations.